sensor_id;sensor_type;location;lat;lon;timestamp;P1;durP1;ratioP1;P2;durP2;ratioP2
22861;SDS011;11598;50.652;6.172;2023-07-20T00:01:39;10.23;;;4.80;;
22861;SDS011;11598;50.652;6.172;2023-07-20T00:11:48;12.23;;;4.75;;
22861;SDS011;11598;50.652;6.172;2023-07-20T00:21:53;11.75;;;4.75;;
22861;SDS011;11598;50.652;6.172;2023-07-20T00:31:54;10.77;;;4.28;;
22861;SDS011;11598;50.652;6.172;2023-07-20T00:41:55;11.77;;;4.53;;
22861;SDS011;11598;50.652;6.172;2023-07-20T00:51:55;6.35;;;3.28;;
22861;SDS011;11598;50.652;6.172;2023-07-20T01:01:56;10.13;;;4.13;;
22861;SDS011;11598;50.652;6.172;2023-07-20T01:22:15;6.55;;;3.53;;
22861;SDS011;11598;50.652;6.172;2023-07-20T01:32:28;9.75;;;3.47;;
22861;SDS011;11598;50.652;6.172;2023-07-20T01:42:30;9.45;;;3.83;;
22861;SDS011;11598;50.652;6.172;2023-07-20T01:52:31;9.50;;;3.13;;
22861;SDS011;11598;50.652;6.172;2023-07-20T02:02:31;6.65;;;2.90;;
22861;SDS011;11598;50.652;6.172;2023-07-20T02:12:31;13.20;;;3.65;;
22861;SDS011;11598;50.652;6.172;2023-07-20T02:22:32;9.40;;;3.45;;
22861;SDS011;11598;50.652;6.172;2023-07-20T02:32:33;11.90;;;3.42;;
22861;SDS011;11598;50.652;6.172;2023-07-20T02:42:34;10.63;;;3.40;;
22861;SDS011;11598;50.652;6.172;2023-07-20T02:52:34;7.03;;;2.90;;
22861;SDS011;11598;50.652;6.172;2023-07-20T03:02:35;9.05;;;3.50;;
22861;SDS011;11598;50.652;6.172;2023-07-20T03:12:35;6.90;;;2.95;;
22861;SDS011;11598;50.652;6.172;2023-07-20T03:22:36;8.73;;;3.55;;
22861;SDS011;11598;50.652;6.172;2023-07-20T03:32:36;9.98;;;3.95;;
22861;SDS011;11598;50.652;6.172;2023-07-20T03:42:36;12.23;;;4.00;;
22861;SDS011;11598;50.652;6.172;2023-07-20T03:52:38;10.93;;;3.97;;
22861;SDS011;11598;50.652;6.172;2023-07-20T04:02:38;8.98;;;4.15;;
22861;SDS011;11598;50.652;6.172;2023-07-20T04:12:39;15.70;;;4.78;;
22861;SDS011;11598;50.652;6.172;2023-07-20T04:22:39;14.85;;;5.30;;
22861;SDS011;11598;50.652;6.172;2023-07-20T04:32:39;11.45;;;4.78;;
22861;SDS011;11598;50.652;6.172;2023-07-20T04:42:46;13.35;;;5.90;;
22861;SDS011;11598;50.652;6.172;2023-07-20T04:52:46;20.75;;;8.05;;
22861;SDS011;11598;50.652;6.172;2023-07-20T05:02:48;11.35;;;6.00;;
22861;SDS011;11598;50.652;6.172;2023-07-20T05:12:48;18.20;;;7.75;;
22861;SDS011;11598;50.652;6.172;2023-07-20T05:22:49;20.75;;;9.10;;
22861;SDS011;11598;50.652;6.172;2023-07-20T05:32:49;18.17;;;9.38;;
22861;SDS011;11598;50.652;6.172;2023-07-20T05:42:52;16.90;;;9.93;;
22861;SDS011;11598;50.652;6.172;2023-07-20T05:52:54;21.38;;;9.70;;
22861;SDS011;11598;50.652;6.172;2023-07-20T06:02:54;18.13;;;9.32;;
22861;SDS011;11598;50.652;6.172;2023-07-20T06:12:55;15.20;;;8.48;;
22861;SDS011;11598;50.652;6.172;2023-07-20T06:22:56;19.90;;;10.52;;
22861;SDS011;11598;50.652;6.172;2023-07-20T06:32:56;14.73;;;7.60;;
22861;SDS011;11598;50.652;6.172;2023-07-20T06:42:57;12.90;;;7.15;;
22861;SDS011;11598;50.652;6.172;2023-07-20T06:52:57;14.15;;;7.43;;
22861;SDS011;11598;50.652;6.172;2023-07-20T07:02:58;12.45;;;6.47;;
22861;SDS011;11598;50.652;6.172;2023-07-20T07:12:59;11.60;;;5.45;;
22861;SDS011;11598;50.652;6.172;2023-07-20T07:23:00;7.75;;;4.70;;
22861;SDS011;11598;50.652;6.172;2023-07-20T07:33:00;10.48;;;4.10;;
22861;SDS011;11598;50.652;6.172;2023-07-20T07:43:00;7.40;;;3.75;;
22861;SDS011;11598;50.652;6.172;2023-07-20T07:53:01;8.27;;;3.22;;
22861;SDS011;11598;50.652;6.172;2023-07-20T08:03:01;8.57;;;3.58;;
22861;SDS011;11598;50.652;6.172;2023-07-20T08:13:02;8.52;;;4.03;;
22861;SDS011;11598;50.652;6.172;2023-07-20T08:23:02;8.38;;;4.00;;
22861;SDS011;11598;50.652;6.172;2023-07-20T08:33:02;9.38;;;3.72;;
22861;SDS011;11598;50.652;6.172;2023-07-20T08:43:03;6.63;;;3.43;;
22861;SDS011;11598;50.652;6.172;2023-07-20T08:53:04;6.53;;;3.25;;
22861;SDS011;11598;50.652;6.172;2023-07-20T09:03:04;4.60;;;3.00;;
22861;SDS011;11598;50.652;6.172;2023-07-20T09:13:05;8.18;;;3.42;;
22861;SDS011;11598;50.652;6.172;2023-07-20T09:23:05;4.75;;;2.30;;
22861;SDS011;11598;50.652;6.172;2023-07-20T09:33:06;11.30;;;3.25;;
22861;SDS011;11598;50.652;6.172;2023-07-20T09:43:19;6.47;;;3.22;;
22861;SDS011;11598;50.652;6.172;2023-07-20T09:53:19;9.15;;;2.80;;
22861;SDS011;11598;50.652;6.172;2023-07-20T10:03:21;6.37;;;2.03;;
22861;SDS011;11598;50.652;6.172;2023-07-20T10:13:26;5.28;;;2.60;;
22861;SDS011;11598;50.652;6.172;2023-07-20T10:23:29;4.63;;;1.98;;
22861;SDS011;11598;50.652;6.172;2023-07-20T10:33:30;7.50;;;2.20;;
22861;SDS011;11598;50.652;6.172;2023-07-20T10:43:31;4.43;;;2.40;;
22861;SDS011;11598;50.652;6.172;2023-07-20T10:53:31;6.07;;;2.40;;
22861;SDS011;11598;50.652;6.172;2023-07-20T11:03:38;6.30;;;1.70;;
22861;SDS011;11598;50.652;6.172;2023-07-20T11:13:53;4.55;;;2.05;;
22861;SDS011;11598;50.652;6.172;2023-07-20T11:23:54;5.57;;;1.70;;
22861;SDS011;11598;50.652;6.172;2023-07-20T11:33:55;6.72;;;2.70;;
22861;SDS011;11598;50.652;6.172;2023-07-20T11:43:55;5.40;;;1.88;;
22861;SDS011;11598;50.652;6.172;2023-07-20T11:53:56;4.53;;;1.85;;
22861;SDS011;11598;50.652;6.172;2023-07-20T12:03:59;5.65;;;1.40;;
22861;SDS011;11598;50.652;6.172;2023-07-20T12:14:02;4.25;;;1.63;;
22861;SDS011;11598;50.652;6.172;2023-07-20T12:24:03;5.45;;;1.35;;
22861;SDS011;11598;50.652;6.172;2023-07-20T12:34:04;2.88;;;1.00;;
22861;SDS011;11598;50.652;6.172;2023-07-20T12:44:05;2.58;;;1.13;;
22861;SDS011;11598;50.652;6.172;2023-07-20T12:54:05;3.80;;;1.10;;
22861;SDS011;11598;50.652;6.172;2023-07-20T13:04:06;2.55;;;1.00;;
22861;SDS011;11598;50.652;6.172;2023-07-20T13:14:08;2.92;;;1.10;;
22861;SDS011;11598;50.652;6.172;2023-07-20T13:24:09;2.78;;;1.00;;
22861;SDS011;11598;50.652;6.172;2023-07-20T13:34:10;3.42;;;0.80;;
22861;SDS011;11598;50.652;6.172;2023-07-20T13:44:11;3.30;;;1.13;;
22861;SDS011;11598;50.652;6.172;2023-07-20T13:54:11;3.35;;;0.77;;
22861;SDS011;11598;50.652;6.172;2023-07-20T14:04:12;1.77;;;0.73;;
22861;SDS011;11598;50.652;6.172;2023-07-20T14:14:12;4.80;;;1.20;;
22861;SDS011;11598;50.652;6.172;2023-07-20T14:24:13;3.63;;;1.20;;
22861;SDS011;11598;50.652;6.172;2023-07-20T14:34:13;3.38;;;1.20;;
22861;SDS011;11598;50.652;6.172;2023-07-20T14:44:14;2.88;;;0.95;;
22861;SDS011;11598;50.652;6.172;2023-07-20T14:54:15;4.07;;;1.17;;
22861;SDS011;11598;50.652;6.172;2023-07-20T15:04:15;2.03;;;0.88;;
22861;SDS011;11598;50.652;6.172;2023-07-20T15:14:15;2.65;;;1.10;;
22861;SDS011;11598;50.652;6.172;2023-07-20T15:24:16;3.13;;;0.95;;
22861;SDS011;11598;50.652;6.172;2023-07-20T15:34:16;7.47;;;1.10;;
22861;SDS011;11598;50.652;6.172;2023-07-20T15:44:16;4.10;;;1.05;;
22861;SDS011;11598;50.652;6.172;2023-07-20T15:54:17;3.97;;;0.98;;
22861;SDS011;11598;50.652;6.172;2023-07-20T16:04:17;3.67;;;0.85;;
22861;SDS011;11598;50.652;6.172;2023-07-20T16:14:17;3.83;;;0.93;;
22861;SDS011;11598;50.652;6.172;2023-07-20T16:24:18;2.60;;;1.10;;
22861;SDS011;11598;50.652;6.172;2023-07-20T16:34:18;1.90;;;0.80;;
22861;SDS011;11598;50.652;6.172;2023-07-20T16:44:18;3.17;;;0.90;;
22861;SDS011;11598;50.652;6.172;2023-07-20T16:54:19;3.92;;;1.13;;
22861;SDS011;11598;50.652;6.172;2023-07-20T17:04:19;3.40;;;1.27;;
22861;SDS011;11598;50.652;6.172;2023-07-20T17:14:20;3.63;;;1.30;;
22861;SDS011;11598;50.652;6.172;2023-07-20T17:24:21;5.80;;;1.15;;
22861;SDS011;11598;50.652;6.172;2023-07-20T17:34:21;4.25;;;1.05;;
22861;SDS011;11598;50.652;6.172;2023-07-20T17:44:21;2.65;;;1.10;;
22861;SDS011;11598;50.652;6.172;2023-07-20T17:54:22;2.13;;;1.02;;
22861;SDS011;11598;50.652;6.172;2023-07-20T18:04:22;3.60;;;1.05;;
22861;SDS011;11598;50.652;6.172;2023-07-20T18:14:22;3.17;;;1.10;;
22861;SDS011;11598;50.652;6.172;2023-07-20T18:24:23;3.63;;;0.98;;
22861;SDS011;11598;50.652;6.172;2023-07-20T18:34:23;4.20;;;1.00;;
22861;SDS011;11598;50.652;6.172;2023-07-20T18:44:23;2.75;;;1.00;;
22861;SDS011;11598;50.652;6.172;2023-07-20T18:54:25;3.50;;;0.88;;
22861;SDS011;11598;50.652;6.172;2023-07-20T19:04:25;3.67;;;1.37;;
22861;SDS011;11598;50.652;6.172;2023-07-20T19:14:26;4.32;;;0.98;;
22861;SDS011;11598;50.652;6.172;2023-07-20T19:24:26;2.45;;;0.80;;
22861;SDS011;11598;50.652;6.172;2023-07-20T19:34:27;3.85;;;1.90;;
22861;SDS011;11598;50.652;6.172;2023-07-20T19:44:28;9.35;;;3.70;;
22861;SDS011;11598;50.652;6.172;2023-07-20T20:04:32;9.98;;;5.40;;
22861;SDS011;11598;50.652;6.172;2023-07-20T20:14:33;11.50;;;7.55;;
22861;SDS011;11598;50.652;6.172;2023-07-20T20:24:34;11.30;;;9.25;;
22861;SDS011;11598;50.652;6.172;2023-07-20T20:34:36;14.30;;;10.20;;
22861;SDS011;11598;50.652;6.172;2023-07-20T20:44:36;16.98;;;13.43;;
22861;SDS011;11598;50.652;6.172;2023-07-20T20:54:37;15.75;;;11.88;;
22861;SDS011;11598;50.652;6.172;2023-07-20T21:04:37;15.05;;;12.85;;
22861;SDS011;11598;50.652;6.172;2023-07-20T21:14:37;20.33;;;15.27;;
22861;SDS011;11598;50.652;6.172;2023-07-20T21:24:38;22.38;;;14.82;;
22861;SDS011;11598;50.652;6.172;2023-07-20T21:34:38;19.23;;;15.90;;
22861;SDS011;11598;50.652;6.172;2023-07-20T21:44:38;16.27;;;13.80;;
22861;SDS011;11598;50.652;6.172;2023-07-20T21:54:39;16.58;;;14.73;;
22861;SDS011;11598;50.652;6.172;2023-07-20T22:04:39;12.98;;;11.05;;
22861;SDS011;11598;50.652;6.172;2023-07-20T22:14:40;18.15;;;13.90;;
22861;SDS011;11598;50.652;6.172;2023-07-20T22:24:41;21.23;;;16.55;;
22861;SDS011;11598;50.652;6.172;2023-07-20T22:34:42;13.10;;;11.38;;
22861;SDS011;11598;50.652;6.172;2023-07-20T22:44:42;18.15;;;14.05;;
22861;SDS011;11598;50.652;6.172;2023-07-20T22:54:42;18.75;;;14.70;;
22861;SDS011;11598;50.652;6.172;2023-07-20T23:04:43;16.95;;;13.25;;
22861;SDS011;11598;50.652;6.172;2023-07-20T23:14:44;10.05;;;8.52;;
22861;SDS011;11598;50.652;6.172;2023-07-20T23:24:44;15.27;;;7.25;;
22861;SDS011;11598;50.652;6.172;2023-07-20T23:34:44;8.30;;;5.53;;
22861;SDS011;11598;50.652;6.172;2023-07-20T23:44:45;4.97;;;3.85;;
22861;SDS011;11598;50.652;6.172;2023-07-20T23:54:46;7.80;;;3.25;;
